Here is the Quick Look data you requested

The Data originates at the National Weather Service, and is made available here by the UAlbany Department of Atmospheric and Environmental Sciences

Surface Observations

KPHL 250954Z 00000KT 10SM FEW100 SCT280 19/16 A2986 RMK AO2 SLP110 T01940161 $=
KTHV 250953Z AUTO 00000KT 6SM BR CLR 15/14 A2986 RMK AO2 SLP111 T01500139=
KLNS 250953Z 08003KT 10SM CLR 14/13 A2986 RMK AO2 SLP108 T01390133=
KCXY 250956Z AUTO 23003KT 10SM CLR 18/14 A2986 RMK AO2 SLP109 T01780144=
KMDT 250956Z 36003KT 10SM OVC250 17/15 A2985 RMK AO2 SLP107 T01720150=
KMIV 250954Z AUTO 00000KT 7SM CLR 14/13 A2985 RMK AO2 SLP106 T01390133=
KTTN 250953Z 36004KT 10SM CLR 14/11 A2986 RMK AO2 SLP104 T01440111=
KRDG 250954Z 00000KT 8SM CLR 16/13 A2986 RMK AO2 SLP113 T01560128=
KDCA 250952Z 21003KT 10SM BKN250 21/18 A2985 RMK AO2 SLP107 T02110183=
KADW 250955Z AUTO 00000KT 10SM CLR 18/17 A2983 RMK AO2 SLP106 T01790169 $=
KBWI 250954Z 00000KT 10SM BKN250 19/18 A2985 RMK AO2 SLP105 T01890178=
KDMH 250953Z AUTO 22/17 A2985 RMK AO1 SLP109 T02170172=
KFME 250949Z AUTO 00000KT 5SM CLR 15/15 A2988 RMK AO1=
KHGR 250953Z AUTO 10005KT 8SM CLR 18/16 A2986 RMK AO2 SLP115 T01780161=
KMTN 250949Z AUTO 00000KT 10SM CLR 18/17 A2986 RMK AO2=
KNHK 250952Z AUTO 23004KT 4SM BR SCT002 19/17 A2985 RMK AO2 VIS 1/2 RY24 SLP109
 T01890172 $=
KOXB 250953Z AUTO 12003KT 1/4SM FG VV002 19/18 A2986 RMK AO2 SLP111 T01890178=
KSBY 250954Z AUTO 00000KT 1/4SM FG VV002 16/16 A2985 RMK AO2 SLP111 T01560156=
KDOV 250955Z 00000KT 4SM BR CLR 18/17 A2983 RMK AO2A SLP105 T01820174=
KGED 250954Z AUTO 00000KT 1/4SM FG VV001 16/16 A2985 RMK AO2 SLP107 T01610161=
KILG 250951Z 36004KT 10SM CLR 17/16 A2986 RMK AO2 SLP110 T01670156=